sensor_id;sensor_type;location;lat;lon;timestamp;pressure;altitude;pressure_sealevel;temperature;humidity
16978;BME280;8605;52.548;4.918;2024-01-15T00:00:53;100367.69;;;1.99;90.46
16978;BME280;8605;52.548;4.918;2024-01-15T00:03:21;100362.84;;;1.93;90.95
16978;BME280;8605;52.548;4.918;2024-01-15T00:05:49;100346.19;;;1.91;91.69
16978;BME280;8605;52.548;4.918;2024-01-15T00:08:17;100348.09;;;1.89;92.28
16978;BME280;8605;52.548;4.918;2024-01-15T00:10:45;100342.09;;;1.87;92.02
16978;BME280;8605;52.548;4.918;2024-01-15T00:13:12;100344.00;;;1.85;91.91
16978;BME280;8605;52.548;4.918;2024-01-15T00:15:42;100347.59;;;1.84;92.08
16978;BME280;8605;52.548;4.918;2024-01-15T00:18:10;100363.53;;;1.84;92.43
16978;BME280;8605;52.548;4.918;2024-01-15T00:20:38;100355.91;;;1.79;92.83
16978;BME280;8605;52.548;4.918;2024-01-15T00:23:06;100349.13;;;1.75;93.06
16978;BME280;8605;52.548;4.918;2024-01-15T00:25:34;100347.78;;;1.70;92.95
16978;BME280;8605;52.548;4.918;2024-01-15T00:28:02;100330.38;;;1.54;93.54
16978;BME280;8605;52.548;4.918;2024-01-15T00:30:30;100335.34;;;1.59;93.61
16978;BME280;8605;52.548;4.918;2024-01-15T00:32:59;100332.06;;;1.55;93.71
16978;BME280;8605;52.548;4.918;2024-01-15T00:35:27;100325.41;;;1.50;94.14
16978;BME280;8605;52.548;4.918;2024-01-15T00:37:54;100323.03;;;1.58;93.47
16978;BME280;8605;52.548;4.918;2024-01-15T00:40:22;100313.28;;;1.58;92.88
16978;BME280;8605;52.548;4.918;2024-01-15T00:42:51;100310.63;;;1.58;92.45
16978;BME280;8605;52.548;4.918;2024-01-15T00:45:19;100311.47;;;1.59;92.81
16978;BME280;8605;52.548;4.918;2024-01-15T00:47:48;100301.25;;;1.66;92.69
16978;BME280;8605;52.548;4.918;2024-01-15T00:50:18;100292.09;;;1.70;92.05
16978;BME280;8605;52.548;4.918;2024-01-15T00:52:45;100288.59;;;1.69;92.63
16978;BME280;8605;52.548;4.918;2024-01-15T00:55:14;100294.03;;;1.68;92.25
16978;BME280;8605;52.548;4.918;2024-01-15T00:57:41;100289.59;;;1.68;92.86
16978;BME280;8605;52.548;4.918;2024-01-15T01:00:10;100282.59;;;1.67;92.42
16978;BME280;8605;52.548;4.918;2024-01-15T01:02:39;100291.38;;;1.68;92.72
16978;BME280;8605;52.548;4.918;2024-01-15T01:05:07;100278.13;;;1.68;92.97
16978;BME280;8605;52.548;4.918;2024-01-15T01:07:37;100275.59;;;1.66;92.72
16978;BME280;8605;52.548;4.918;2024-01-15T01:10:05;100285.25;;;1.67;92.72
16978;BME280;8605;52.548;4.918;2024-01-15T01:12:34;100285.94;;;1.69;92.94
16978;BME280;8605;52.548;4.918;2024-01-15T01:15:02;100289.22;;;1.73;92.34
16978;BME280;8605;52.548;4.918;2024-01-15T01:17:30;100270.03;;;1.69;92.65
16978;BME280;8605;52.548;4.918;2024-01-15T01:19:58;100275.41;;;1.80;92.90
16978;BME280;8605;52.548;4.918;2024-01-15T01:22:26;100274.09;;;1.86;93.02
16978;BME280;8605;52.548;4.918;2024-01-15T01:24:55;100282.41;;;1.92;92.57
16978;BME280;8605;52.548;4.918;2024-01-15T01:27:23;100263.97;;;1.91;92.94
16978;BME280;8605;52.548;4.918;2024-01-15T01:29:51;100267.69;;;1.88;93.51
16978;BME280;8605;52.548;4.918;2024-01-15T01:32:19;100258.06;;;1.87;94.08
16978;BME280;8605;52.548;4.918;2024-01-15T01:34:47;100263.97;;;1.91;93.68
16978;BME280;8605;52.548;4.918;2024-01-15T01:37:15;100262.16;;;1.91;93.65
16978;BME280;8605;52.548;4.918;2024-01-15T01:39:43;100263.59;;;1.95;93.46
16978;BME280;8605;52.548;4.918;2024-01-15T01:42:13;100257.81;;;1.90;93.19
16978;BME280;8605;52.548;4.918;2024-01-15T01:44:41;100259.63;;;1.90;93.37
16978;BME280;8605;52.548;4.918;2024-01-15T01:47:09;100256.75;;;1.93;92.71
16978;BME280;8605;52.548;4.918;2024-01-15T01:49:37;100262.53;;;1.87;92.85
16978;BME280;8605;52.548;4.918;2024-01-15T01:52:06;100262.53;;;1.87;92.32
16978;BME280;8605;52.548;4.918;2024-01-15T01:54:35;100251.53;;;1.80;92.72
16978;BME280;8605;52.548;4.918;2024-01-15T01:57:05;100260.09;;;1.84;92.82
16978;BME280;8605;52.548;4.918;2024-01-15T01:59:35;100265.03;;;1.88;93.21
16978;BME280;8605;52.548;4.918;2024-01-15T02:02:03;100256.59;;;1.83;93.29
16978;BME280;8605;52.548;4.918;2024-01-15T02:04:32;100256.47;;;1.85;93.11
16978;BME280;8605;52.548;4.918;2024-01-15T02:07:00;100286.25;;;1.88;93.26
16978;BME280;8605;52.548;4.918;2024-01-15T02:09:28;100265.50;;;1.82;93.57
16978;BME280;8605;52.548;4.918;2024-01-15T02:11:56;100275.63;;;1.77;93.27
16978;BME280;8605;52.548;4.918;2024-01-15T02:14:23;100265.16;;;1.87;94.46
16978;BME280;8605;52.548;4.918;2024-01-15T02:16:52;100275.63;;;1.88;93.79
16978;BME280;8605;52.548;4.918;2024-01-15T02:19:20;100288.41;;;1.83;93.48
16978;BME280;8605;52.548;4.918;2024-01-15T02:21:48;100297.72;;;1.54;94.32
16978;BME280;8605;52.548;4.918;2024-01-15T02:24:18;100295.28;;;1.51;94.32
16978;BME280;8605;52.548;4.918;2024-01-15T02:26:46;100284.38;;;1.43;94.34
16978;BME280;8605;52.548;4.918;2024-01-15T02:29:16;100269.09;;;1.35;94.88
16978;BME280;8605;52.548;4.918;2024-01-15T02:31:44;100291.38;;;1.44;95.02
16978;BME280;8605;52.548;4.918;2024-01-15T02:34:12;100298.63;;;1.42;94.87
16978;BME280;8605;52.548;4.918;2024-01-15T02:36:40;100299.09;;;1.36;94.90
16978;BME280;8605;52.548;4.918;2024-01-15T02:39:08;100291.94;;;1.36;95.30
16978;BME280;8605;52.548;4.918;2024-01-15T02:41:37;100289.09;;;1.39;95.43
16978;BME280;8605;52.548;4.918;2024-01-15T02:44:05;100279.44;;;1.38;95.44
16978;BME280;8605;52.548;4.918;2024-01-15T02:46:33;100253.22;;;1.46;94.70
16978;BME280;8605;52.548;4.918;2024-01-15T02:49:01;100250.47;;;1.48;94.48
16978;BME280;8605;52.548;4.918;2024-01-15T02:51:28;100250.66;;;1.45;95.07
16978;BME280;8605;52.548;4.918;2024-01-15T02:53:56;100254.28;;;1.44;95.18
16978;BME280;8605;52.548;4.918;2024-01-15T02:56:24;100249.94;;;1.43;95.30
16978;BME280;8605;52.548;4.918;2024-01-15T02:58:53;100167.00;;;0.95;95.18
16978;BME280;8605;52.548;4.918;2024-01-15T03:01:21;100244.63;;;1.43;95.56
16978;BME280;8605;52.548;4.918;2024-01-15T03:03:49;100236.47;;;1.46;95.68
16978;BME280;8605;52.548;4.918;2024-01-15T03:06:17;100247.06;;;1.46;95.77
16978;BME280;8605;52.548;4.918;2024-01-15T03:08:44;100238.16;;;1.47;95.92
16978;BME280;8605;52.548;4.918;2024-01-15T03:11:12;100232.88;;;1.47;95.78
16978;BME280;8605;52.548;4.918;2024-01-15T03:13:40;100231.91;;;1.48;95.61
16978;BME280;8605;52.548;4.918;2024-01-15T03:16:10;100235.63;;;1.45;95.97
16978;BME280;8605;52.548;4.918;2024-01-15T03:18:37;100229.94;;;1.39;95.94
16978;BME280;8605;52.548;4.918;2024-01-15T03:21:06;100227.06;;;1.42;95.65
16978;BME280;8605;52.548;4.918;2024-01-15T03:23:34;100242.72;;;1.45;95.34
16978;BME280;8605;52.548;4.918;2024-01-15T03:26:02;100231.63;;;1.40;95.49
16978;BME280;8605;52.548;4.918;2024-01-15T03:28:30;100233.81;;;1.46;95.72
16978;BME280;8605;52.548;4.918;2024-01-15T03:30:57;100225.41;;;1.52;95.17
16978;BME280;8605;52.548;4.918;2024-01-15T03:33:27;100214.19;;;1.48;95.75
16978;BME280;8605;52.548;4.918;2024-01-15T03:35:55;100227.84;;;1.55;95.51
16978;BME280;8605;52.548;4.918;2024-01-15T03:38:23;100229.63;;;1.54;95.52
16978;BME280;8605;52.548;4.918;2024-01-15T03:40:51;100225.19;;;1.55;95.37
16978;BME280;8605;52.548;4.918;2024-01-15T03:43:19;100220.34;;;1.49;95.83
16978;BME280;8605;52.548;4.918;2024-01-15T03:45:46;100226.13;;;1.54;95.80
16978;BME280;8605;52.548;4.918;2024-01-15T03:48:14;100217.44;;;1.52;96.07
16978;BME280;8605;52.548;4.918;2024-01-15T03:50:44;100214.69;;;1.53;95.67
16978;BME280;8605;52.548;4.918;2024-01-15T03:53:11;100213.59;;;1.56;95.79
16978;BME280;8605;52.548;4.918;2024-01-15T03:55:40;100210.72;;;1.59;95.85
16978;BME280;8605;52.548;4.918;2024-01-15T03:58:08;100205.06;;;1.64;95.35
16978;BME280;8605;52.548;4.918;2024-01-15T04:00:35;100205.53;;;1.69;95.27
16978;BME280;8605;52.548;4.918;2024-01-15T04:03:03;100201.84;;;1.71;95.02
16978;BME280;8605;52.548;4.918;2024-01-15T04:05:32;100202.78;;;1.70;95.29
16978;BME280;8605;52.548;4.918;2024-01-15T04:08:01;100198.44;;;1.69;95.74
16978;BME280;8605;52.548;4.918;2024-01-15T04:10:29;100195.19;;;1.66;95.76
16978;BME280;8605;52.548;4.918;2024-01-15T04:12:56;100189.03;;;1.65;95.76
16978;BME280;8605;52.548;4.918;2024-01-15T04:15:26;100199.28;;;1.70;95.63
16978;BME280;8605;52.548;4.918;2024-01-15T04:17:54;100195.31;;;1.75;95.58
16978;BME280;8605;52.548;4.918;2024-01-15T04:20:22;100195.34;;;1.86;95.01
16978;BME280;8605;52.548;4.918;2024-01-15T04:22:51;100204.75;;;1.90;94.97
16978;BME280;8605;52.548;4.918;2024-01-15T04:25:21;100187.41;;;1.86;94.72
16978;BME280;8605;52.548;4.918;2024-01-15T04:27:48;100191.84;;;1.75;95.42
16978;BME280;8605;52.548;4.918;2024-01-15T04:30:16;100209.91;;;1.70;95.93
16978;BME280;8605;52.548;4.918;2024-01-15T04:32:44;100215.56;;;1.65;96.19
16978;BME280;8605;52.548;4.918;2024-01-15T04:35:12;100211.22;;;1.64;96.58
16978;BME280;8605;52.548;4.918;2024-01-15T04:37:40;100211.94;;;1.66;96.22
16978;BME280;8605;52.548;4.918;2024-01-15T04:40:09;100196.16;;;1.65;96.21
16978;BME280;8605;52.548;4.918;2024-01-15T04:42:38;100192.75;;;1.63;96.13
16978;BME280;8605;52.548;4.918;2024-01-15T04:45:06;100193.13;;;1.58;96.09
16978;BME280;8605;52.548;4.918;2024-01-15T04:47:34;100182.88;;;1.53;96.31
16978;BME280;8605;52.548;4.918;2024-01-15T04:50:03;100174.06;;;1.53;96.58
16978;BME280;8605;52.548;4.918;2024-01-15T04:52:31;100175.03;;;1.52;96.54
16978;BME280;8605;52.548;4.918;2024-01-15T04:54:59;100179.50;;;1.51;96.81
16978;BME280;8605;52.548;4.918;2024-01-15T04:57:27;100184.69;;;1.53;96.35
16978;BME280;8605;52.548;4.918;2024-01-15T04:59:56;100189.88;;;1.54;96.03
16978;BME280;8605;52.548;4.918;2024-01-15T05:02:24;100208.44;;;1.54;96.45
16978;BME280;8605;52.548;4.918;2024-01-15T05:04:52;100199.53;;;1.55;96.21
16978;BME280;8605;52.548;4.918;2024-01-15T05:07:20;100205.78;;;1.54;96.30
16978;BME280;8605;52.548;4.918;2024-01-15T05:09:47;100202.50;;;1.51;96.38
16978;BME280;8605;52.548;4.918;2024-01-15T05:12:15;100205.41;;;1.48;96.57
16978;BME280;8605;52.548;4.918;2024-01-15T05:14:43;100212.81;;;1.43;96.75
16978;BME280;8605;52.548;4.918;2024-01-15T05:17:12;100214.13;;;1.37;96.79
16978;BME280;8605;52.548;4.918;2024-01-15T05:19:40;100196.91;;;1.32;96.45
16978;BME280;8605;52.548;4.918;2024-01-15T05:22:08;100194.59;;;1.27;96.49
16978;BME280;8605;52.548;4.918;2024-01-15T05:24:36;100180.00;;;1.22;96.44
16978;BME280;8605;52.548;4.918;2024-01-15T05:27:04;100169.31;;;1.23;96.25
16978;BME280;8605;52.548;4.918;2024-01-15T05:29:32;100156.38;;;1.18;96.68
16978;BME280;8605;52.548;4.918;2024-01-15T05:31:59;100156.16;;;1.22;96.45
16978;BME280;8605;52.548;4.918;2024-01-15T05:34:29;100166.03;;;1.19;96.89
16978;BME280;8605;52.548;4.918;2024-01-15T05:36:57;100161.47;;;1.22;96.90
16978;BME280;8605;52.548;4.918;2024-01-15T05:39:25;100157.34;;;1.17;96.73
16978;BME280;8605;52.548;4.918;2024-01-15T05:41:53;100150.47;;;1.15;97.09
16978;BME280;8605;52.548;4.918;2024-01-15T05:44:21;100156.63;;;1.15;96.83
16978;BME280;8605;52.548;4.918;2024-01-15T05:46:48;100154.19;;;1.12;96.65
16978;BME280;8605;52.548;4.918;2024-01-15T05:49:16;100160.44;;;1.11;96.91
16978;BME280;8605;52.548;4.918;2024-01-15T05:51:45;100157.78;;;1.11;97.10
16978;BME280;8605;52.548;4.918;2024-01-15T05:54:13;100161.19;;;1.13;96.98
16978;BME280;8605;52.548;4.918;2024-01-15T05:56:41;100155.28;;;1.10;96.99
16978;BME280;8605;52.548;4.918;2024-01-15T05:59:10;100160.22;;;1.14;97.11
16978;BME280;8605;52.548;4.918;2024-01-15T06:01:41;100148.03;;;1.12;97.36
16978;BME280;8605;52.548;4.918;2024-01-15T06:04:09;100145.41;;;1.12;96.90
16978;BME280;8605;52.548;4.918;2024-01-15T06:06:37;100163.63;;;1.16;96.97
16978;BME280;8605;52.548;4.918;2024-01-15T06:09:09;100170.25;;;1.22;96.99
16978;BME280;8605;52.548;4.918;2024-01-15T06:11:36;100170.75;;;1.27;96.60
16978;BME280;8605;52.548;4.918;2024-01-15T06:14:04;100169.69;;;1.30;96.49
16978;BME280;8605;52.548;4.918;2024-01-15T06:16:32;100156.88;;;1.24;96.71
16978;BME280;8605;52.548;4.918;2024-01-15T06:18:59;100158.94;;;1.31;96.50
16978;BME280;8605;52.548;4.918;2024-01-15T06:21:28;100159.09;;;1.30;95.84
16978;BME280;8605;52.548;4.918;2024-01-15T06:23:55;100152.19;;;1.27;95.06
16978;BME280;8605;52.548;4.918;2024-01-15T06:26:25;100141.72;;;1.26;95.54
16978;BME280;8605;52.548;4.918;2024-01-15T06:28:52;100144.59;;;1.23;95.02
16978;BME280;8605;52.548;4.918;2024-01-15T06:31:20;100136.78;;;1.21;95.39
16978;BME280;8605;52.548;4.918;2024-01-15T06:33:48;100151.72;;;1.22;95.38
16978;BME280;8605;52.548;4.918;2024-01-15T06:36:19;100139.78;;;1.16;94.87
16978;BME280;8605;52.548;4.918;2024-01-15T06:38:47;100138.78;;;1.17;94.79
16978;BME280;8605;52.548;4.918;2024-01-15T06:41:15;100141.78;;;1.13;95.18
16978;BME280;8605;52.548;4.918;2024-01-15T06:43:44;100137.06;;;1.05;95.04
16978;BME280;8605;52.548;4.918;2024-01-15T06:46:13;100136.84;;;1.08;95.34
16978;BME280;8605;52.548;4.918;2024-01-15T06:48:41;100134.09;;;1.10;95.38
16978;BME280;8605;52.548;4.918;2024-01-15T06:51:09;100146.34;;;1.11;95.64
16978;BME280;8605;52.548;4.918;2024-01-15T06:53:39;100168.19;;;1.14;95.32
16978;BME280;8605;52.548;4.918;2024-01-15T06:56:09;100154.31;;;1.11;95.22
16978;BME280;8605;52.548;4.918;2024-01-15T06:58:38;100160.78;;;1.07;94.89
16978;BME280;8605;52.548;4.918;2024-01-15T07:01:10;100146.94;;;1.03;95.12
16978;BME280;8605;52.548;4.918;2024-01-15T07:03:40;100142.59;;;1.02;95.20
16978;BME280;8605;52.548;4.918;2024-01-15T07:06:08;100151.06;;;1.07;95.12
16978;BME280;8605;52.548;4.918;2024-01-15T07:08:36;100139.16;;;1.13;95.31
16978;BME280;8605;52.548;4.918;2024-01-15T07:11:05;100127.47;;;1.15;95.61
16978;BME280;8605;52.548;4.918;2024-01-15T07:13:33;100127.47;;;1.15;95.42
16978;BME280;8605;52.548;4.918;2024-01-15T07:16:01;100120.72;;;1.11;95.55
16978;BME280;8605;52.548;4.918;2024-01-15T07:18:30;100123.03;;;1.16;95.84
16978;BME280;8605;52.548;4.918;2024-01-15T07:20:58;100110.63;;;1.16;95.42
16978;BME280;8605;52.548;4.918;2024-01-15T07:23:27;100109.06;;;1.14;95.53
16978;BME280;8605;52.548;4.918;2024-01-15T07:25:57;100094.34;;;1.10;95.95
16978;BME280;8605;52.548;4.918;2024-01-15T07:28:25;100108.69;;;1.18;95.45
16978;BME280;8605;52.548;4.918;2024-01-15T07:30:53;100109.53;;;1.19;95.79
16978;BME280;8605;52.548;4.918;2024-01-15T07:33:21;100128.56;;;1.24;95.89
16978;BME280;8605;52.548;4.918;2024-01-15T07:35:50;100114.00;;;1.18;95.56
16978;BME280;8605;52.548;4.918;2024-01-15T07:38:18;100110.88;;;1.25;95.14
16978;BME280;8605;52.548;4.918;2024-01-15T07:40:46;100130.91;;;1.29;94.90
16978;BME280;8605;52.548;4.918;2024-01-15T07:43:16;100124.84;;;1.27;94.75
16978;BME280;8605;52.548;4.918;2024-01-15T07:45:44;100136.19;;;1.29;94.56
16978;BME280;8605;52.548;4.918;2024-01-15T07:48:12;100133.91;;;1.35;94.38
16978;BME280;8605;52.548;4.918;2024-01-15T07:50:40;100141.97;;;1.34;94.27
16978;BME280;8605;52.548;4.918;2024-01-15T07:53:10;100133.28;;;1.32;93.78
16978;BME280;8605;52.548;4.918;2024-01-15T07:55:37;100135.34;;;1.28;93.62
16978;BME280;8605;52.548;4.918;2024-01-15T07:58:05;100139.06;;;1.26;93.04
16978;BME280;8605;52.548;4.918;2024-01-15T08:00:42;100133.75;;;1.26;93.60
16978;BME280;8605;52.548;4.918;2024-01-15T08:03:10;100132.91;;;1.25;93.85
16978;BME280;8605;52.548;4.918;2024-01-15T08:05:40;100123.63;;;1.19;94.50
16978;BME280;8605;52.548;4.918;2024-01-15T08:08:09;100125.22;;;1.22;94.06
16978;BME280;8605;52.548;4.918;2024-01-15T08:10:38;100145.22;;;1.26;93.71
16978;BME280;8605;52.548;4.918;2024-01-15T08:13:06;100155.22;;;1.34;93.11
16978;BME280;8605;52.548;4.918;2024-01-15T08:15:36;100170.41;;;1.32;93.74
16978;BME280;8605;52.548;4.918;2024-01-15T08:18:04;100177.09;;;1.13;95.10
16978;BME280;8605;52.548;4.918;2024-01-15T08:20:32;100172.25;;;1.07;96.28
16978;BME280;8605;52.548;4.918;2024-01-15T08:23:00;100163.16;;;0.99;96.22
16978;BME280;8605;52.548;4.918;2024-01-15T08:25:29;100150.75;;;0.99;96.16
16978;BME280;8605;52.548;4.918;2024-01-15T08:27:57;100144.88;;;0.96;96.43
16978;BME280;8605;52.548;4.918;2024-01-15T08:30:25;100146.56;;;0.97;96.82
16978;BME280;8605;52.548;4.918;2024-01-15T08:32:54;100139.00;;;1.03;96.35
16978;BME280;8605;52.548;4.918;2024-01-15T08:35:25;100130.06;;;1.04;96.28
16978;BME280;8605;52.548;4.918;2024-01-15T08:37:53;100137.91;;;1.06;95.80
16978;BME280;8605;52.548;4.918;2024-01-15T08:40:21;100133.47;;;1.06;95.54
16978;BME280;8605;52.548;4.918;2024-01-15T08:42:50;100129.00;;;1.07;95.86
16978;BME280;8605;52.548;4.918;2024-01-15T08:45:18;100129.59;;;1.10;95.55
16978;BME280;8605;52.548;4.918;2024-01-15T08:47:46;100133.38;;;1.19;95.59
16978;BME280;8605;52.548;4.918;2024-01-15T08:50:14;100126.31;;;1.31;94.98
16978;BME280;8605;52.548;4.918;2024-01-15T08:52:42;100136.44;;;1.37;95.10
16978;BME280;8605;52.548;4.918;2024-01-15T08:55:10;100146.19;;;1.36;94.79
16978;BME280;8605;52.548;4.918;2024-01-15T08:57:39;100153.31;;;1.36;94.85
16978;BME280;8605;52.548;4.918;2024-01-15T09:00:14;100142.47;;;1.39;94.68
16978;BME280;8605;52.548;4.918;2024-01-15T09:02:42;100146.81;;;1.40;94.71
16978;BME280;8605;52.548;4.918;2024-01-15T09:05:10;100148.13;;;1.34;94.03
16978;BME280;8605;52.548;4.918;2024-01-15T09:07:38;100156.56;;;1.39;94.05
16978;BME280;8605;52.548;4.918;2024-01-15T09:10:08;100156.56;;;1.39;94.19
16978;BME280;8605;52.548;4.918;2024-01-15T09:12:36;100148.84;;;1.36;94.12
16978;BME280;8605;52.548;4.918;2024-01-15T09:15:05;100146.31;;;1.35;94.58
16978;BME280;8605;52.548;4.918;2024-01-15T09:17:37;100142.38;;;1.40;94.01
16978;BME280;8605;52.548;4.918;2024-01-15T09:20:07;100141.31;;;1.54;93.52
16978;BME280;8605;52.548;4.918;2024-01-15T09:22:38;100150.25;;;1.75;93.17
16978;BME280;8605;52.548;4.918;2024-01-15T09:25:11;100142.28;;;1.75;93.64
16978;BME280;8605;52.548;4.918;2024-01-15T09:27:39;100148.06;;;1.69;93.44
16978;BME280;8605;52.548;4.918;2024-01-15T09:30:09;100155.41;;;1.66;93.99
16978;BME280;8605;52.548;4.918;2024-01-15T09:32:39;100146.50;;;1.67;93.64
16978;BME280;8605;52.548;4.918;2024-01-15T09:35:09;100162.16;;;1.70;93.73
16978;BME280;8605;52.548;4.918;2024-01-15T09:37:40;100148.69;;;1.73;93.24
16978;BME280;8605;52.548;4.918;2024-01-15T09:40:14;100157.22;;;1.76;92.71
16978;BME280;8605;52.548;4.918;2024-01-15T09:42:43;100157.75;;;1.81;92.11
16978;BME280;8605;52.548;4.918;2024-01-15T09:45:13;100159.88;;;1.76;92.75
16978;BME280;8605;52.548;4.918;2024-01-15T09:47:43;100159.19;;;1.74;92.93
16978;BME280;8605;52.548;4.918;2024-01-15T09:50:12;100146.03;;;1.73;91.98
16978;BME280;8605;52.548;4.918;2024-01-15T09:52:42;100157.75;;;1.81;92.00
16978;BME280;8605;52.548;4.918;2024-01-15T09:55:11;100172.56;;;1.84;92.01
16978;BME280;8605;52.548;4.918;2024-01-15T09:57:41;100176.69;;;1.88;92.65
16978;BME280;8605;52.548;4.918;2024-01-15T10:00:09;100186.66;;;1.84;92.46
16978;BME280;8605;52.548;4.918;2024-01-15T10:02:38;100195.31;;;1.75;91.63
16978;BME280;8605;52.548;4.918;2024-01-15T10:05:08;100187.34;;;1.64;92.85
16978;BME280;8605;52.548;4.918;2024-01-15T10:07:37;100197.38;;;1.83;92.19
16978;BME280;8605;52.548;4.918;2024-01-15T10:10:10;100211.44;;;2.07;91.34
16978;BME280;8605;52.548;4.918;2024-01-15T10:12:39;100229.84;;;1.86;92.97
16978;BME280;8605;52.548;4.918;2024-01-15T10:15:09;100230.50;;;1.66;94.71
16978;BME280;8605;52.548;4.918;2024-01-15T10:17:37;100214.81;;;1.63;95.01
16978;BME280;8605;52.548;4.918;2024-01-15T10:20:10;100216.03;;;1.59;95.04
16978;BME280;8605;52.548;4.918;2024-01-15T10:22:41;100207.81;;;1.51;94.95
16978;BME280;8605;52.548;4.918;2024-01-15T10:25:10;100209.00;;;1.47;95.28
16978;BME280;8605;52.548;4.918;2024-01-15T10:27:38;100214.53;;;1.44;95.04
16978;BME280;8605;52.548;4.918;2024-01-15T10:30:10;100213.22;;;1.49;95.10
16978;BME280;8605;52.548;4.918;2024-01-15T10:32:40;100223.03;;;1.60;95.05
16978;BME280;8605;52.548;4.918;2024-01-15T10:35:10;100226.28;;;1.64;94.66
16978;BME280;8605;52.548;4.918;2024-01-15T10:37:38;100217.63;;;1.62;94.94
16978;BME280;8605;52.548;4.918;2024-01-15T10:40:09;100217.84;;;1.58;95.15
16978;BME280;8605;52.548;4.918;2024-01-15T10:42:36;100223.97;;;1.59;94.82
16978;BME280;8605;52.548;4.918;2024-01-15T10:45:05;100218.56;;;1.60;95.13
16978;BME280;8605;52.548;4.918;2024-01-15T10:47:35;100214.22;;;1.59;94.92
16978;BME280;8605;52.548;4.918;2024-01-15T10:50:04;100220.03;;;1.76;94.52
16978;BME280;8605;52.548;4.918;2024-01-15T10:52:37;100213.94;;;1.86;94.13
16978;BME280;8605;52.548;4.918;2024-01-15T10:55:08;100210.91;;;1.91;94.34
16978;BME280;8605;52.548;4.918;2024-01-15T10:57:45;100217.28;;;1.88;94.24
16978;BME280;8605;52.548;4.918;2024-01-15T11:00:14;100209.94;;;1.81;93.31
16978;BME280;8605;52.548;4.918;2024-01-15T11:02:42;100208.13;;;1.81;92.86
16978;BME280;8605;52.548;4.918;2024-01-15T11:05:11;100209.19;;;1.79;93.23
16978;BME280;8605;52.548;4.918;2024-01-15T11:07:41;100205.81;;;1.77;93.75
16978;BME280;8605;52.548;4.918;2024-01-15T11:10:38;100216.31;;;1.78;93.06
16978;BME280;8605;52.548;4.918;2024-01-15T11:13:08;100207.53;;;1.89;92.78
16978;BME280;8605;52.548;4.918;2024-01-15T11:15:55;100226.25;;;2.10;92.66
16978;BME280;8605;52.548;4.918;2024-01-15T11:18:23;100221.19;;;2.18;92.28
16978;BME280;8605;52.548;4.918;2024-01-15T11:21:22;100229.63;;;2.34;90.99
16978;BME280;8605;52.548;4.918;2024-01-15T11:23:54;100242.19;;;2.43;92.24
16978;BME280;8605;52.548;4.918;2024-01-15T11:26:34;100241.34;;;2.42;91.25
16978;BME280;8605;52.548;4.918;2024-01-15T11:29:03;100243.25;;;2.40;92.33
16978;BME280;8605;52.548;4.918;2024-01-15T11:31:56;100246.03;;;2.28;92.59
16978;BME280;8605;52.548;4.918;2024-01-15T11:34:55;100260.03;;;2.19;92.94
16978;BME280;8605;52.548;4.918;2024-01-15T11:37:26;100252.41;;;2.14;93.23
16978;BME280;8605;52.548;4.918;2024-01-15T11:40:01;100270.91;;;2.27;92.79
16978;BME280;8605;52.548;4.918;2024-01-15T11:42:30;100294.06;;;2.25;92.99
16978;BME280;8605;52.548;4.918;2024-01-15T11:44:58;100293.78;;;2.06;93.19
16978;BME280;8605;52.548;4.918;2024-01-15T11:48:09;100289.59;;;1.68;94.69
16978;BME280;8605;52.548;4.918;2024-01-15T11:50:41;100284.69;;;1.51;95.07
16978;BME280;8605;52.548;4.918;2024-01-15T11:53:16;100283.72;;;1.52;95.24
16978;BME280;8605;52.548;4.918;2024-01-15T11:55:46;100282.66;;;1.54;95.33
16978;BME280;8605;52.548;4.918;2024-01-15T11:58:15;100278.66;;;1.49;95.32
16978;BME280;8605;52.548;4.918;2024-01-15T12:00:45;100279.47;;;1.49;95.24
16978;BME280;8605;52.548;4.918;2024-01-15T12:03:15;100279.84;;;1.45;95.17
16978;BME280;8605;52.548;4.918;2024-01-15T12:05:43;100273.06;;;1.41;95.51
16978;BME280;8605;52.548;4.918;2024-01-15T12:08:11;100283.13;;;1.48;94.94
16978;BME280;8605;52.548;4.918;2024-01-15T12:10:39;100280.84;;;1.55;94.48
16978;BME280;8605;52.548;4.918;2024-01-15T12:13:11;100273.69;;;1.68;94.47
16978;BME280;8605;52.548;4.918;2024-01-15T12:15:41;100286.66;;;1.60;94.50
16978;BME280;8605;52.548;4.918;2024-01-15T12:18:11;100281.56;;;1.57;94.82
16978;BME280;8605;52.548;4.918;2024-01-15T12:20:40;100291.31;;;1.56;94.77
16978;BME280;8605;52.548;4.918;2024-01-15T12:23:09;100301.22;;;1.54;94.73
16978;BME280;8605;52.548;4.918;2024-01-15T12:25:40;100294.13;;;1.55;95.25
16978;BME280;8605;52.548;4.918;2024-01-15T12:28:08;100289.75;;;1.54;95.08
16978;BME280;8605;52.548;4.918;2024-01-15T12:30:39;100277.91;;;1.47;94.82
16978;BME280;8605;52.548;4.918;2024-01-15T12:33:09;100274.53;;;1.45;94.00
16978;BME280;8605;52.548;4.918;2024-01-15T12:35:37;100264.50;;;1.37;93.25
16978;BME280;8605;52.548;4.918;2024-01-15T12:38:05;100267.22;;;1.48;92.54
16978;BME280;8605;52.548;4.918;2024-01-15T12:40:35;100271.66;;;1.48;91.95
16978;BME280;8605;52.548;4.918;2024-01-15T12:43:05;100261.00;;;1.60;90.97
16978;BME280;8605;52.548;4.918;2024-01-15T12:45:33;100266.44;;;1.70;90.97
16978;BME280;8605;52.548;4.918;2024-01-15T12:48:04;100258.25;;;1.73;90.40
16978;BME280;8605;52.548;4.918;2024-01-15T12:50:33;100250.31;;;1.84;90.20
16978;BME280;8605;52.548;4.918;2024-01-15T12:53:02;100269.19;;;2.04;89.65
16978;BME280;8605;52.548;4.918;2024-01-15T12:55:29;100274.38;;;2.16;89.87
16978;BME280;8605;52.548;4.918;2024-01-15T12:57:57;100272.34;;;2.20;90.08
16978;BME280;8605;52.548;4.918;2024-01-15T13:00:25;100290.09;;;2.19;90.07
16978;BME280;8605;52.548;4.918;2024-01-15T13:02:53;100304.63;;;2.03;90.97
16978;BME280;8605;52.548;4.918;2024-01-15T13:05:23;100302.50;;;1.73;91.30
16978;BME280;8605;52.548;4.918;2024-01-15T13:07:54;100290.94;;;1.85;91.40
16978;BME280;8605;52.548;4.918;2024-01-15T13:10:21;100292.41;;;1.89;91.79
16978;BME280;8605;52.548;4.918;2024-01-15T13:12:52;100302.50;;;1.73;92.01
16978;BME280;8605;52.548;4.918;2024-01-15T13:15:20;100293.19;;;1.67;92.19
16978;BME280;8605;52.548;4.918;2024-01-15T13:17:47;100305.22;;;1.60;91.60
16978;BME280;8605;52.548;4.918;2024-01-15T13:20:15;100302.84;;;1.68;91.82